sensor_id;sensor_type;location;lat;lon;timestamp;P1;durP1;ratioP1;P2;durP2;ratioP2
16979;SDS011;42288;52.182;21.156;2023-02-18T00:01:24;9.30;;;2.40;;
16979;SDS011;42288;52.182;21.156;2023-02-18T00:03:50;6.57;;;2.27;;
16979;SDS011;42288;52.182;21.156;2023-02-18T00:08:45;7.37;;;2.60;;
16979;SDS011;42288;52.182;21.156;2023-02-18T00:11:12;6.00;;;2.23;;
16979;SDS011;42288;52.182;21.156;2023-02-18T00:13:38;12.17;;;2.83;;
16979;SDS011;42288;52.182;21.156;2023-02-18T00:16:08;8.47;;;2.10;;
16979;SDS011;42288;52.182;21.156;2023-02-18T00:18:35;9.40;;;2.30;;
16979;SDS011;42288;52.182;21.156;2023-02-18T00:21:02;14.00;;;2.33;;
16979;SDS011;42288;52.182;21.156;2023-02-18T00:23:29;9.30;;;2.80;;
16979;SDS011;42288;52.182;21.156;2023-02-18T00:26:02;7.00;;;2.00;;
16979;SDS011;42288;52.182;21.156;2023-02-18T00:28:28;7.40;;;2.10;;
16979;SDS011;42288;52.182;21.156;2023-02-18T00:30:53;7.87;;;2.20;;
16979;SDS011;42288;52.182;21.156;2023-02-18T00:33:19;8.03;;;1.80;;
16979;SDS011;42288;52.182;21.156;2023-02-18T00:35:45;8.50;;;2.10;;
16979;SDS011;42288;52.182;21.156;2023-02-18T00:38:10;14.53;;;3.00;;
16979;SDS011;42288;52.182;21.156;2023-02-18T00:40:36;8.13;;;2.50;;
16979;SDS011;42288;52.182;21.156;2023-02-18T00:43:02;10.07;;;2.10;;
16979;SDS011;42288;52.182;21.156;2023-02-18T00:45:28;10.03;;;2.13;;
16979;SDS011;42288;52.182;21.156;2023-02-18T00:47:54;7.77;;;2.20;;
16979;SDS011;42288;52.182;21.156;2023-02-18T00:50:19;10.73;;;2.03;;
16979;SDS011;42288;52.182;21.156;2023-02-18T00:52:45;9.97;;;2.50;;
16979;SDS011;42288;52.182;21.156;2023-02-18T00:55:11;9.87;;;2.80;;
16979;SDS011;42288;52.182;21.156;2023-02-18T00:57:36;13.37;;;2.73;;
16979;SDS011;42288;52.182;21.156;2023-02-18T01:00:03;11.37;;;2.83;;
16979;SDS011;42288;52.182;21.156;2023-02-18T01:02:30;11.80;;;2.97;;
16979;SDS011;42288;52.182;21.156;2023-02-18T01:04:56;9.60;;;2.20;;
16979;SDS011;42288;52.182;21.156;2023-02-18T01:07:21;10.87;;;2.50;;
16979;SDS011;42288;52.182;21.156;2023-02-18T01:09:47;9.03;;;2.30;;
16979;SDS011;42288;52.182;21.156;2023-02-18T01:12:13;12.47;;;2.33;;
16979;SDS011;42288;52.182;21.156;2023-02-18T01:14:38;16.87;;;2.83;;
16979;SDS011;42288;52.182;21.156;2023-02-18T01:17:04;11.90;;;1.93;;
16979;SDS011;42288;52.182;21.156;2023-02-18T01:19:30;10.37;;;2.57;;
16979;SDS011;42288;52.182;21.156;2023-02-18T01:21:55;12.07;;;2.33;;
16979;SDS011;42288;52.182;21.156;2023-02-18T01:24:21;13.50;;;2.20;;
16979;SDS011;42288;52.182;21.156;2023-02-18T01:26:47;10.07;;;2.17;;
16979;SDS011;42288;52.182;21.156;2023-02-18T01:29:12;10.03;;;2.00;;
16979;SDS011;42288;52.182;21.156;2023-02-18T01:31:38;13.57;;;2.80;;
16979;SDS011;42288;52.182;21.156;2023-02-18T01:34:03;9.53;;;2.77;;
16979;SDS011;42288;52.182;21.156;2023-02-18T01:36:29;9.80;;;2.70;;
16979;SDS011;42288;52.182;21.156;2023-02-18T01:38:55;7.27;;;1.87;;
16979;SDS011;42288;52.182;21.156;2023-02-18T01:41:20;10.33;;;2.27;;
16979;SDS011;42288;52.182;21.156;2023-02-18T01:43:46;8.83;;;2.30;;
16979;SDS011;42288;52.182;21.156;2023-02-18T01:48:39;12.07;;;2.07;;
16979;SDS011;42288;52.182;21.156;2023-02-18T01:53:56;8.50;;;2.10;;
16979;SDS011;42288;52.182;21.156;2023-02-18T01:56:25;10.13;;;2.47;;
16979;SDS011;42288;52.182;21.156;2023-02-18T01:59:01;15.10;;;2.57;;
16979;SDS011;42288;52.182;21.156;2023-02-18T02:01:31;9.60;;;2.20;;
16979;SDS011;42288;52.182;21.156;2023-02-18T02:03:57;9.00;;;2.23;;
16979;SDS011;42288;52.182;21.156;2023-02-18T02:06:23;10.07;;;2.90;;
16979;SDS011;42288;52.182;21.156;2023-02-18T02:08:50;12.43;;;2.10;;
16979;SDS011;42288;52.182;21.156;2023-02-18T02:17:06;13.37;;;2.50;;
16979;SDS011;42288;52.182;21.156;2023-02-18T02:33:24;14.33;;;2.50;;
16979;SDS011;42288;52.182;21.156;2023-02-18T02:36:13;8.70;;;1.90;;
16979;SDS011;42288;52.182;21.156;2023-02-18T02:41:51;8.63;;;2.10;;
16979;SDS011;42288;52.182;21.156;2023-02-18T02:46:55;13.00;;;2.60;;
16979;SDS011;42288;52.182;21.156;2023-02-18T02:49:42;13.10;;;2.47;;
16979;SDS011;42288;52.182;21.156;2023-02-18T02:52:27;11.90;;;2.70;;
16979;SDS011;42288;52.182;21.156;2023-02-18T02:54:57;15.90;;;2.20;;
16979;SDS011;42288;52.182;21.156;2023-02-18T02:59:50;11.50;;;2.63;;
16979;SDS011;42288;52.182;21.156;2023-02-18T03:02:28;15.80;;;2.20;;
16979;SDS011;42288;52.182;21.156;2023-02-18T03:18:33;12.27;;;2.40;;
16979;SDS011;42288;52.182;21.156;2023-02-18T03:21:10;13.87;;;2.73;;
16979;SDS011;42288;52.182;21.156;2023-02-18T03:23:48;13.20;;;2.40;;
16979;SDS011;42288;52.182;21.156;2023-02-18T03:26:20;10.70;;;2.93;;
16979;SDS011;42288;52.182;21.156;2023-02-18T03:28:48;11.93;;;2.47;;
16979;SDS011;42288;52.182;21.156;2023-02-18T03:31:15;10.03;;;2.30;;
16979;SDS011;42288;52.182;21.156;2023-02-18T03:33:46;11.73;;;2.50;;
16979;SDS011;42288;52.182;21.156;2023-02-18T03:36:18;13.17;;;2.93;;
16979;SDS011;42288;52.182;21.156;2023-02-18T03:38:56;13.53;;;2.30;;
16979;SDS011;42288;52.182;21.156;2023-02-18T03:41:25;12.53;;;2.30;;
16979;SDS011;42288;52.182;21.156;2023-02-18T03:43:57;10.13;;;2.20;;
16979;SDS011;42288;52.182;21.156;2023-02-18T03:46:29;11.23;;;2.37;;
16979;SDS011;42288;52.182;21.156;2023-02-18T03:48:56;11.03;;;2.50;;
16979;SDS011;42288;52.182;21.156;2023-02-18T03:51:21;13.57;;;2.27;;
16979;SDS011;42288;52.182;21.156;2023-02-18T03:53:47;16.40;;;3.03;;
16979;SDS011;42288;52.182;21.156;2023-02-18T03:56:15;13.13;;;2.53;;
16979;SDS011;42288;52.182;21.156;2023-02-18T03:58:41;18.60;;;2.70;;
16979;SDS011;42288;52.182;21.156;2023-02-18T04:01:07;11.67;;;2.80;;
16979;SDS011;42288;52.182;21.156;2023-02-18T04:03:33;11.30;;;2.40;;
16979;SDS011;42288;52.182;21.156;2023-02-18T04:05:58;11.13;;;2.27;;
16979;SDS011;42288;52.182;21.156;2023-02-18T04:08:24;9.77;;;2.30;;
16979;SDS011;42288;52.182;21.156;2023-02-18T04:10:49;10.30;;;2.53;;
16979;SDS011;42288;52.182;21.156;2023-02-18T04:13:15;15.00;;;2.70;;
16979;SDS011;42288;52.182;21.156;2023-02-18T04:15:42;14.87;;;2.73;;
16979;SDS011;42288;52.182;21.156;2023-02-18T04:18:08;11.00;;;2.50;;
16979;SDS011;42288;52.182;21.156;2023-02-18T04:20:34;16.27;;;2.77;;
16979;SDS011;42288;52.182;21.156;2023-02-18T04:23:00;14.93;;;2.40;;
16979;SDS011;42288;52.182;21.156;2023-02-18T04:25:25;15.77;;;2.10;;
16979;SDS011;42288;52.182;21.156;2023-02-18T04:27:51;12.77;;;2.97;;
16979;SDS011;42288;52.182;21.156;2023-02-18T04:30:17;8.43;;;1.97;;
16979;SDS011;42288;52.182;21.156;2023-02-18T04:32:42;10.53;;;2.10;;
16979;SDS011;42288;52.182;21.156;2023-02-18T04:35:08;10.60;;;2.23;;
16979;SDS011;42288;52.182;21.156;2023-02-18T04:37:33;14.60;;;2.50;;
16979;SDS011;42288;52.182;21.156;2023-02-18T04:39:59;16.97;;;2.20;;
16979;SDS011;42288;52.182;21.156;2023-02-18T04:42:25;13.93;;;2.37;;
16979;SDS011;42288;52.182;21.156;2023-02-18T04:44:50;17.27;;;2.80;;
16979;SDS011;42288;52.182;21.156;2023-02-18T04:47:16;11.50;;;2.50;;
16979;SDS011;42288;52.182;21.156;2023-02-18T04:49:41;7.80;;;2.07;;
16979;SDS011;42288;52.182;21.156;2023-02-18T04:52:07;16.73;;;3.00;;
16979;SDS011;42288;52.182;21.156;2023-02-18T04:54:33;12.93;;;2.33;;
16979;SDS011;42288;52.182;21.156;2023-02-18T04:56:58;12.37;;;2.77;;
16979;SDS011;42288;52.182;21.156;2023-02-18T04:59:24;8.03;;;2.10;;
16979;SDS011;42288;52.182;21.156;2023-02-18T05:01:49;11.20;;;2.50;;
16979;SDS011;42288;52.182;21.156;2023-02-18T05:04:15;11.90;;;2.20;;
16979;SDS011;42288;52.182;21.156;2023-02-18T05:06:43;9.77;;;2.67;;
16979;SDS011;42288;52.182;21.156;2023-02-18T05:09:09;14.60;;;2.83;;
16979;SDS011;42288;52.182;21.156;2023-02-18T05:11:35;15.10;;;2.70;;
16979;SDS011;42288;52.182;21.156;2023-02-18T05:14:01;15.23;;;2.50;;
16979;SDS011;42288;52.182;21.156;2023-02-18T05:16:27;9.17;;;2.33;;
16979;SDS011;42288;52.182;21.156;2023-02-18T05:18:52;9.63;;;2.17;;
16979;SDS011;42288;52.182;21.156;2023-02-18T05:21:18;12.73;;;2.20;;
16979;SDS011;42288;52.182;21.156;2023-02-18T05:23:44;11.57;;;2.07;;
16979;SDS011;42288;52.182;21.156;2023-02-18T05:26:09;16.03;;;2.33;;
16979;SDS011;42288;52.182;21.156;2023-02-18T05:28:35;12.93;;;2.40;;
16979;SDS011;42288;52.182;21.156;2023-02-18T05:31:01;10.63;;;2.43;;
16979;SDS011;42288;52.182;21.156;2023-02-18T05:33:26;14.87;;;2.30;;
16979;SDS011;42288;52.182;21.156;2023-02-18T05:35:52;13.87;;;2.53;;
16979;SDS011;42288;52.182;21.156;2023-02-18T05:38:18;14.00;;;2.30;;
16979;SDS011;42288;52.182;21.156;2023-02-18T05:40:43;14.47;;;2.83;;
16979;SDS011;42288;52.182;21.156;2023-02-18T05:43:09;11.00;;;2.53;;
16979;SDS011;42288;52.182;21.156;2023-02-18T05:45:35;18.77;;;2.67;;
16979;SDS011;42288;52.182;21.156;2023-02-18T05:48:00;15.27;;;3.20;;
16979;SDS011;42288;52.182;21.156;2023-02-18T05:50:26;17.20;;;3.00;;
16979;SDS011;42288;52.182;21.156;2023-02-18T05:52:52;12.53;;;2.50;;
16979;SDS011;42288;52.182;21.156;2023-02-18T05:55:18;11.23;;;2.30;;
16979;SDS011;42288;52.182;21.156;2023-02-18T05:57:44;17.03;;;2.60;;
16979;SDS011;42288;52.182;21.156;2023-02-18T06:00:09;12.80;;;2.33;;
16979;SDS011;42288;52.182;21.156;2023-02-18T06:02:36;13.77;;;2.50;;
16979;SDS011;42288;52.182;21.156;2023-02-18T06:05:02;18.30;;;2.60;;
16979;SDS011;42288;52.182;21.156;2023-02-18T06:07:28;16.57;;;2.80;;
16979;SDS011;42288;52.182;21.156;2023-02-18T06:09:53;11.40;;;2.43;;
16979;SDS011;42288;52.182;21.156;2023-02-18T06:12:19;12.57;;;2.30;;
16979;SDS011;42288;52.182;21.156;2023-02-18T06:14:45;11.33;;;2.03;;
16979;SDS011;42288;52.182;21.156;2023-02-18T06:17:11;12.93;;;2.37;;
16979;SDS011;42288;52.182;21.156;2023-02-18T06:19:37;14.50;;;2.40;;
16979;SDS011;42288;52.182;21.156;2023-02-18T06:22:03;12.43;;;2.57;;
16979;SDS011;42288;52.182;21.156;2023-02-18T06:24:29;13.87;;;2.40;;
16979;SDS011;42288;52.182;21.156;2023-02-18T06:26:55;13.13;;;2.63;;
16979;SDS011;42288;52.182;21.156;2023-02-18T06:29:21;11.17;;;2.63;;
16979;SDS011;42288;52.182;21.156;2023-02-18T06:31:47;12.93;;;2.37;;
16979;SDS011;42288;52.182;21.156;2023-02-18T06:34:12;8.63;;;2.60;;
16979;SDS011;42288;52.182;21.156;2023-02-18T06:36:38;11.90;;;2.43;;
16979;SDS011;42288;52.182;21.156;2023-02-18T06:39:04;15.53;;;2.47;;
16979;SDS011;42288;52.182;21.156;2023-02-18T06:41:30;10.93;;;2.53;;
16979;SDS011;42288;52.182;21.156;2023-02-18T06:43:56;17.57;;;2.57;;
16979;SDS011;42288;52.182;21.156;2023-02-18T06:46:22;16.57;;;3.30;;
16979;SDS011;42288;52.182;21.156;2023-02-18T06:48:48;15.93;;;2.63;;
16979;SDS011;42288;52.182;21.156;2023-02-18T06:51:13;13.13;;;2.50;;
16979;SDS011;42288;52.182;21.156;2023-02-18T06:53:40;10.20;;;2.00;;
16979;SDS011;42288;52.182;21.156;2023-02-18T06:56:06;12.40;;;2.80;;
16979;SDS011;42288;52.182;21.156;2023-02-18T06:58:32;11.40;;;2.50;;
16979;SDS011;42288;52.182;21.156;2023-02-18T07:00:57;11.30;;;2.33;;
16979;SDS011;42288;52.182;21.156;2023-02-18T07:03:23;13.87;;;2.63;;
16979;SDS011;42288;52.182;21.156;2023-02-18T07:05:49;10.13;;;2.50;;
16979;SDS011;42288;52.182;21.156;2023-02-18T07:08:14;11.27;;;2.30;;
16979;SDS011;42288;52.182;21.156;2023-02-18T07:10:40;12.43;;;2.50;;
16979;SDS011;42288;52.182;21.156;2023-02-18T07:13:06;14.33;;;2.80;;
16979;SDS011;42288;52.182;21.156;2023-02-18T07:15:31;9.23;;;2.17;;
16979;SDS011;42288;52.182;21.156;2023-02-18T07:17:57;14.23;;;2.40;;
16979;SDS011;42288;52.182;21.156;2023-02-18T07:20:23;10.70;;;2.13;;
16979;SDS011;42288;52.182;21.156;2023-02-18T07:22:49;9.03;;;2.17;;
16979;SDS011;42288;52.182;21.156;2023-02-18T07:25:16;13.07;;;2.93;;
16979;SDS011;42288;52.182;21.156;2023-02-18T07:27:41;18.90;;;3.07;;
16979;SDS011;42288;52.182;21.156;2023-02-18T07:30:07;9.20;;;2.70;;
16979;SDS011;42288;52.182;21.156;2023-02-18T07:32:33;9.07;;;2.50;;
16979;SDS011;42288;52.182;21.156;2023-02-18T07:34:59;11.77;;;2.60;;
16979;SDS011;42288;52.182;21.156;2023-02-18T07:37:25;13.87;;;2.80;;
16979;SDS011;42288;52.182;21.156;2023-02-18T07:39:50;11.47;;;2.70;;
16979;SDS011;42288;52.182;21.156;2023-02-18T07:42:16;13.53;;;2.70;;
16979;SDS011;42288;52.182;21.156;2023-02-18T07:44:42;12.43;;;2.87;;
16979;SDS011;42288;52.182;21.156;2023-02-18T07:47:09;13.83;;;3.10;;
16979;SDS011;42288;52.182;21.156;2023-02-18T07:49:38;16.73;;;3.03;;
16979;SDS011;42288;52.182;21.156;2023-02-18T07:52:04;13.67;;;2.90;;
16979;SDS011;42288;52.182;21.156;2023-02-18T07:54:29;14.37;;;2.97;;
16979;SDS011;42288;52.182;21.156;2023-02-18T07:56:55;12.57;;;2.70;;
16979;SDS011;42288;52.182;21.156;2023-02-18T07:59:21;10.30;;;2.67;;
16979;SDS011;42288;52.182;21.156;2023-02-18T08:01:46;10.07;;;2.40;;
16979;SDS011;42288;52.182;21.156;2023-02-18T08:04:12;12.17;;;2.67;;
16979;SDS011;42288;52.182;21.156;2023-02-18T08:06:39;19.80;;;3.20;;
16979;SDS011;42288;52.182;21.156;2023-02-18T08:09:07;13.63;;;3.00;;
16979;SDS011;42288;52.182;21.156;2023-02-18T08:11:33;13.03;;;3.00;;
16979;SDS011;42288;52.182;21.156;2023-02-18T08:13:59;13.13;;;2.50;;
16979;SDS011;42288;52.182;21.156;2023-02-18T08:16:25;14.13;;;3.10;;
16979;SDS011;42288;52.182;21.156;2023-02-18T08:18:51;20.17;;;3.00;;
16979;SDS011;42288;52.182;21.156;2023-02-18T08:21:18;27.40;;;3.47;;
16979;SDS011;42288;52.182;21.156;2023-02-18T08:23:45;18.23;;;3.57;;
16979;SDS011;42288;52.182;21.156;2023-02-18T08:26:11;20.13;;;3.23;;
16979;SDS011;42288;52.182;21.156;2023-02-18T08:28:37;15.20;;;3.33;;
16979;SDS011;42288;52.182;21.156;2023-02-18T08:31:03;14.73;;;3.40;;
16979;SDS011;42288;52.182;21.156;2023-02-18T08:33:29;15.03;;;3.10;;
16979;SDS011;42288;52.182;21.156;2023-02-18T08:35:54;18.30;;;3.27;;
16979;SDS011;42288;52.182;21.156;2023-02-18T08:38:21;14.27;;;2.73;;
16979;SDS011;42288;52.182;21.156;2023-02-18T08:40:48;12.53;;;2.70;;
16979;SDS011;42288;52.182;21.156;2023-02-18T08:43:14;13.27;;;3.00;;
16979;SDS011;42288;52.182;21.156;2023-02-18T08:45:41;9.87;;;2.53;;
16979;SDS011;42288;52.182;21.156;2023-02-18T08:48:08;14.73;;;3.00;;
16979;SDS011;42288;52.182;21.156;2023-02-18T08:50:35;15.87;;;2.70;;
16979;SDS011;42288;52.182;21.156;2023-02-18T08:53:00;14.90;;;3.40;;
16979;SDS011;42288;52.182;21.156;2023-02-18T08:55:27;15.53;;;3.90;;
16979;SDS011;42288;52.182;21.156;2023-02-18T08:57:59;13.73;;;3.00;;
16979;SDS011;42288;52.182;21.156;2023-02-18T09:00:25;19.07;;;3.57;;
16979;SDS011;42288;52.182;21.156;2023-02-18T09:02:51;15.47;;;2.87;;
16979;SDS011;42288;52.182;21.156;2023-02-18T09:05:17;11.63;;;2.73;;
16979;SDS011;42288;52.182;21.156;2023-02-18T09:07:42;13.00;;;2.73;;
16979;SDS011;42288;52.182;21.156;2023-02-18T09:10:08;13.77;;;3.20;;
16979;SDS011;42288;52.182;21.156;2023-02-18T09:12:35;15.17;;;3.10;;
16979;SDS011;42288;52.182;21.156;2023-02-18T09:15:01;16.97;;;3.60;;
16979;SDS011;42288;52.182;21.156;2023-02-18T09:17:29;13.97;;;3.70;;
16979;SDS011;42288;52.182;21.156;2023-02-18T09:19:55;22.47;;;3.40;;
16979;SDS011;42288;52.182;21.156;2023-02-18T09:22:20;12.63;;;3.20;;
16979;SDS011;42288;52.182;21.156;2023-02-18T09:24:46;11.80;;;2.60;;
16979;SDS011;42288;52.182;21.156;2023-02-18T09:27:12;10.80;;;2.73;;
16979;SDS011;42288;52.182;21.156;2023-02-18T09:29:38;13.17;;;2.83;;
16979;SDS011;42288;52.182;21.156;2023-02-18T09:32:04;12.83;;;2.90;;
16979;SDS011;42288;52.182;21.156;2023-02-18T09:34:33;10.50;;;3.00;;
16979;SDS011;42288;52.182;21.156;2023-02-18T09:36:59;14.83;;;2.60;;
16979;SDS011;42288;52.182;21.156;2023-02-18T09:39:25;17.20;;;3.00;;
16979;SDS011;42288;52.182;21.156;2023-02-18T09:41:54;14.13;;;2.80;;
16979;SDS011;42288;52.182;21.156;2023-02-18T09:44:28;15.00;;;2.80;;
16979;SDS011;42288;52.182;21.156;2023-02-18T09:47:02;13.93;;;3.23;;
16979;SDS011;42288;52.182;21.156;2023-02-18T09:49:34;18.93;;;3.20;;
16979;SDS011;42288;52.182;21.156;2023-02-18T09:55:16;11.87;;;3.40;;
16979;SDS011;42288;52.182;21.156;2023-02-18T09:57:44;18.07;;;3.80;;
16979;SDS011;42288;52.182;21.156;2023-02-18T10:00:16;17.53;;;4.07;;
16979;SDS011;42288;52.182;21.156;2023-02-18T10:05:23;18.60;;;3.27;;
16979;SDS011;42288;52.182;21.156;2023-02-18T10:07:53;14.80;;;3.43;;
16979;SDS011;42288;52.182;21.156;2023-02-18T10:13:00;13.47;;;2.80;;
16979;SDS011;42288;52.182;21.156;2023-02-18T10:15:27;14.87;;;3.17;;
16979;SDS011;42288;52.182;21.156;2023-02-18T10:17:56;11.50;;;2.87;;
16979;SDS011;42288;52.182;21.156;2023-02-18T10:20:23;17.23;;;2.67;;
16979;SDS011;42288;52.182;21.156;2023-02-18T10:22:52;11.80;;;3.00;;
16979;SDS011;42288;52.182;21.156;2023-02-18T10:25:20;16.37;;;3.40;;
16979;SDS011;42288;52.182;21.156;2023-02-18T10:27:48;12.13;;;2.50;;
16979;SDS011;42288;52.182;21.156;2023-02-18T10:50:59;12.50;;;3.17;;
16979;SDS011;42288;52.182;21.156;2023-02-18T10:53:33;15.23;;;2.80;;
16979;SDS011;42288;52.182;21.156;2023-02-18T10:56:01;14.87;;;3.17;;
16979;SDS011;42288;52.182;21.156;2023-02-18T10:58:41;15.57;;;2.90;;
16979;SDS011;42288;52.182;21.156;2023-02-18T11:01:18;9.20;;;2.47;;
16979;SDS011;42288;52.182;21.156;2023-02-18T11:06:54;22.17;;;3.30;;
16979;SDS011;42288;52.182;21.156;2023-02-18T11:09:03;12.47;;;2.67;;
16979;SDS011;42288;52.182;21.156;2023-02-18T11:11:31;14.27;;;2.90;;
16979;SDS011;42288;52.182;21.156;2023-02-18T11:14:01;14.10;;;3.10;;
16979;SDS011;42288;52.182;21.156;2023-02-18T11:16:39;12.90;;;3.43;;
16979;SDS011;42288;52.182;21.156;2023-02-18T11:21:56;16.70;;;3.47;;
16979;SDS011;42288;52.182;21.156;2023-02-18T11:24:57;12.07;;;3.47;;
16979;SDS011;42288;52.182;21.156;2023-02-18T11:27:31;20.60;;;3.70;;
16979;SDS011;42288;52.182;21.156;2023-02-18T11:30:18;16.57;;;2.80;;
16979;SDS011;42288;52.182;21.156;2023-02-18T11:33:07;11.03;;;2.97;;
16979;SDS011;42288;52.182;21.156;2023-02-18T11:35:33;17.70;;;3.73;;
16979;SDS011;42288;52.182;21.156;2023-02-18T11:38:01;16.13;;;3.43;;
16979;SDS011;42288;52.182;21.156;2023-02-18T11:43:32;17.53;;;3.20;;
16979;SDS011;42288;52.182;21.156;2023-02-18T11:48:40;20.33;;;4.13;;
16979;SDS011;42288;52.182;21.156;2023-02-18T11:51:13;15.30;;;3.73;;
16979;SDS011;42288;52.182;21.156;2023-02-18T11:53:52;20.27;;;3.43;;
16979;SDS011;42288;52.182;21.156;2023-02-18T11:56:24;13.80;;;3.50;;
16979;SDS011;42288;52.182;21.156;2023-02-18T11:58:53;15.40;;;3.50;;
16979;SDS011;42288;52.182;21.156;2023-02-18T12:01:24;16.27;;;3.97;;
16979;SDS011;42288;52.182;21.156;2023-02-18T12:04:13;16.57;;;3.30;;
16979;SDS011;42288;52.182;21.156;2023-02-18T12:09:35;14.50;;;2.87;;
16979;SDS011;42288;52.182;21.156;2023-02-18T12:12:25;13.17;;;3.00;;
16979;SDS011;42288;52.182;21.156;2023-02-18T12:14:56;10.63;;;3.00;;
16979;SDS011;42288;52.182;21.156;2023-02-18T12:19:55;15.50;;;3.30;;
16979;SDS011;42288;52.182;21.156;2023-02-18T12:33:41;16.27;;;3.97;;
16979;SDS011;42288;52.182;21.156;2023-02-18T12:36:15;17.00;;;4.23;;
16979;SDS011;42288;52.182;21.156;2023-02-18T12:39:13;15.37;;;4.50;;
16979;SDS011;42288;52.182;21.156;2023-02-18T12:55:30;14.43;;;3.73;;
16979;SDS011;42288;52.182;21.156;2023-02-18T13:01:18;14.03;;;3.20;;
16979;SDS011;42288;52.182;21.156;2023-02-18T13:06:18;15.97;;;3.80;;
16979;SDS011;42288;52.182;21.156;2023-02-18T13:14:52;13.53;;;3.63;;
16979;SDS011;42288;52.182;21.156;2023-02-18T13:17:26;13.67;;;3.33;;
16979;SDS011;42288;52.182;21.156;2023-02-18T13:20:32;14.93;;;3.27;;
16979;SDS011;42288;52.182;21.156;2023-02-18T13:23:09;15.37;;;3.30;;
16979;SDS011;42288;52.182;21.156;2023-02-18T13:25:54;17.57;;;3.30;;
16979;SDS011;42288;52.182;21.156;2023-02-18T13:33:55;20.23;;;3.67;;
16979;SDS011;42288;52.182;21.156;2023-02-18T13:39:21;14.63;;;2.77;;
16979;SDS011;42288;52.182;21.156;2023-02-18T13:41:50;11.67;;;3.17;;
16979;SDS011;42288;52.182;21.156;2023-02-18T13:46:48;13.40;;;3.30;;
16979;SDS011;42288;52.182;21.156;2023-02-18T13:49:37;16.03;;;3.00;;
16979;SDS011;42288;52.182;21.156;2023-02-18T13:52:04;16.00;;;3.87;;
16979;SDS011;42288;52.182;21.156;2023-02-18T13:54:32;17.00;;;3.53;;
16979;SDS011;42288;52.182;21.156;2023-02-18T13:59:50;18.63;;;3.30;;
16979;SDS011;42288;52.182;21.156;2023-02-18T14:04:50;14.27;;;3.80;;
16979;SDS011;42288;52.182;21.156;2023-02-18T14:09:53;15.33;;;3.67;;
16979;SDS011;42288;52.182;21.156;2023-02-18T14:12:24;13.87;;;3.70;;
16979;SDS011;42288;52.182;21.156;2023-02-18T14:15:01;10.97;;;3.33;;
16979;SDS011;42288;52.182;21.156;2023-02-18T14:23:10;16.20;;;3.40;;
16979;SDS011;42288;52.182;21.156;2023-02-18T14:25:47;11.47;;;3.53;;
16979;SDS011;42288;52.182;21.156;2023-02-18T14:31:02;16.67;;;3.60;;
16979;SDS011;42288;52.182;21.156;2023-02-18T14:33:30;12.23;;;3.10;;
16979;SDS011;42288;52.182;21.156;2023-02-18T14:41:10;16.37;;;3.83;;
16979;SDS011;42288;52.182;21.156;2023-02-18T14:49:37;13.70;;;3.30;;
16979;SDS011;42288;52.182;21.156;2023-02-18T14:52:14;16.13;;;3.43;;
16979;SDS011;42288;52.182;21.156;2023-02-18T14:54:45;19.83;;;4.43;;
16979;SDS011;42288;52.182;21.156;2023-02-18T14:57:17;16.30;;;3.87;;
16979;SDS011;42288;52.182;21.156;2023-02-18T14:59:56;19.27;;;4.03;;
16979;SDS011;42288;52.182;21.156;2023-02-18T15:02:24;13.50;;;3.40;;
16979;SDS011;42288;52.182;21.156;2023-02-18T15:04:51;17.57;;;3.53;;
16979;SDS011;42288;52.182;21.156;2023-02-18T15:07:20;14.37;;;3.40;;
16979;SDS011;42288;52.182;21.156;2023-02-18T15:09:48;16.27;;;3.80;;
16979;SDS011;42288;52.182;21.156;2023-02-18T15:12:17;16.47;;;3.57;;
16979;SDS011;42288;52.182;21.156;2023-02-18T15:14:45;13.90;;;3.87;;
16979;SDS011;42288;52.182;21.156;2023-02-18T15:17:23;20.23;;;3.67;;
16979;SDS011;42288;52.182;21.156;2023-02-18T15:19:55;16.73;;;3.73;;
16979;SDS011;42288;52.182;21.156;2023-02-18T15:22:23;11.73;;;3.40;;
16979;SDS011;42288;52.182;21.156;2023-02-18T15:24:51;10.20;;;3.37;;
16979;SDS011;42288;52.182;21.156;2023-02-18T15:27:20;7.83;;;2.30;;
16979;SDS011;42288;52.182;21.156;2023-02-18T15:29:48;7.43;;;2.07;;
16979;SDS011;42288;52.182;21.156;2023-02-18T15:32:25;8.77;;;2.17;;
16979;SDS011;42288;52.182;21.156;2023-02-18T15:34:54;8.00;;;2.00;;
16979;SDS011;42288;52.182;21.156;2023-02-18T15:37:22;6.33;;;2.20;;
16979;SDS011;42288;52.182;21.156;2023-02-18T15:39:48;9.03;;;3.13;;
16979;SDS011;42288;52.182;21.156;2023-02-18T15:45:08;12.47;;;3.60;;
16979;SDS011;42288;52.182;21.156;2023-02-18T15:47:41;12.77;;;3.27;;
16979;SDS011;42288;52.182;21.156;2023-02-18T15:50:14;13.90;;;4.03;;
16979;SDS011;42288;52.182;21.156;2023-02-18T15:52:46;11.30;;;2.90;;
16979;SDS011;42288;52.182;21.156;2023-02-18T15:55:18;6.20;;;2.20;;
16979;SDS011;42288;52.182;21.156;2023-02-18T15:57:58;7.47;;;2.63;;
16979;SDS011;42288;52.182;21.156;2023-02-18T16:00:35;9.63;;;2.63;;
16979;SDS011;42288;52.182;21.156;2023-02-18T16:03:15;8.23;;;2.40;;
16979;SDS011;42288;52.182;21.156;2023-02-18T16:06:06;8.07;;;3.03;;
16979;SDS011;42288;52.182;21.156;2023-02-18T16:08:40;8.43;;;2.60;;
16979;SDS011;42288;52.182;21.156;2023-02-18T16:11:32;7.03;;;3.00;;
16979;SDS011;42288;52.182;21.156;2023-02-18T16:14:01;10.03;;;3.20;;
16979;SDS011;42288;52.182;21.156;2023-02-18T16:16:36;11.67;;;3.60;;
16979;SDS011;42288;52.182;21.156;2023-02-18T16:19:03;10.53;;;3.40;;
16979;SDS011;42288;52.182;21.156;2023-02-18T16:24:27;12.17;;;3.57;;
16979;SDS011;42288;52.182;21.156;2023-02-18T16:26:57;19.93;;;4.00;;
16979;SDS011;42288;52.182;21.156;2023-02-18T16:29:44;15.83;;;4.10;;
16979;SDS011;42288;52.182;21.156;2023-02-18T16:32:09;14.30;;;4.20;;
16979;SDS011;42288;52.182;21.156;2023-02-18T16:34:35;13.10;;;4.00;;
16979;SDS011;42288;52.182;21.156;2023-02-18T16:37:01;16.63;;;5.20;;
16979;SDS011;42288;52.182;21.156;2023-02-18T16:39:45;16.20;;;4.10;;
16979;SDS011;42288;52.182;21.156;2023-02-18T16:42:13;13.20;;;3.67;;
16979;SDS011;42288;52.182;21.156;2023-02-18T16:44:39;12.43;;;3.50;;
16979;SDS011;42288;52.182;21.156;2023-02-18T16:47:05;13.43;;;3.40;;
16979;SDS011;42288;52.182;21.156;2023-02-18T16:49:31;20.07;;;4.17;;
16979;SDS011;42288;52.182;21.156;2023-02-18T16:51:58;11.23;;;3.43;;
16979;SDS011;42288;52.182;21.156;2023-02-18T16:54:29;13.83;;;4.30;;
16979;SDS011;42288;52.182;21.156;2023-02-18T16:56:55;13.47;;;4.00;;
16979;SDS011;42288;52.182;21.156;2023-02-18T16:59:20;15.33;;;4.37;;
16979;SDS011;42288;52.182;21.156;2023-02-18T17:01:46;15.20;;;4.40;;
16979;SDS011;42288;52.182;21.156;2023-02-18T17:04:14;11.87;;;3.60;;
16979;SDS011;42288;52.182;21.156;2023-02-18T17:06:42;12.70;;;4.73;;
16979;SDS011;42288;52.182;21.156;2023-02-18T17:09:18;16.57;;;4.33;;
16979;SDS011;42288;52.182;21.156;2023-02-18T17:11:47;16.63;;;4.20;;
16979;SDS011;42288;52.182;21.156;2023-02-18T17:14:15;20.97;;;6.57;;
16979;SDS011;42288;52.182;21.156;2023-02-18T17:16:46;12.03;;;5.30;;
16979;SDS011;42288;52.182;21.156;2023-02-18T17:19:13;13.10;;;5.03;;
16979;SDS011;42288;52.182;21.156;2023-02-18T17:21:40;15.30;;;4.83;;
16979;SDS011;42288;52.182;21.156;2023-02-18T17:24:06;12.03;;;4.20;;
16979;SDS011;42288;52.182;21.156;2023-02-18T17:26:38;17.63;;;6.00;;
16979;SDS011;42288;52.182;21.156;2023-02-18T17:29:04;16.70;;;5.13;;